Time;durP1;ratioP1;P1;durP2;ratioP2;P2;SDS_P1;SDS_P2;PMS_P1;PMS_P2;Temp;Humidity;BMP_temperature;BMP_pressure;BME280_temperature;BME280_humidity;BME280_pressure;Samples;Min_cycle;Max_cycle;Signal;HPM_P1;HPM_P2
2021/07/01 00:00:53;;;;;;;4.15;3.42;;;;;;;;;;4163209;34;20134;-69
2021/07/01 00:03:19;;;;;;;4.75;3.95;;;;;;;;;;4163092;34;20179;-69
2021/07/01 00:05:45;;;;;;;6.03;3.55;;;;;;;;;;4163313;34;20313;-68
2021/07/01 00:08:11;;;;;;;4.07;3.53;;;;;;;;;;4161997;34;20119;-69
2021/07/01 00:10:37;;;;;;;6.12;4.12;;;;;;;;;;4163109;34;20094;-68
2021/07/01 00:13:03;;;;;;;7.87;3.75;;;;;;;;;;4139430;34;20114;-69
2021/07/01 00:15:29;;;;;;;5.15;3.75;;;;;;;;;;4163013;34;20095;-69
2021/07/01 00:43:47;;;;;;;6.07;4.85;;;;;;;;;;4697574;28;20105;-67
2021/07/01 00:46:14;;;;;;;4.75;4.20;;;;;;;;;;4147939;34;20222;-68
2021/07/01 00:48:40;;;;;;;6.78;5.20;;;;;;;;;;4149010;34;20127;-67
2021/07/01 00:51:05;;;;;;;6.25;5.28;;;;;;;;;;4149371;34;20665;-67
2021/07/01 00:53:32;;;;;;;6.03;4.93;;;;;;;;;;4147493;34;20123;-67
2021/07/01 00:55:58;;;;;;;5.25;4.65;;;;;;;;;;4149019;34;20118;-67
2021/07/01 00:58:24;;;;;;;5.85;4.68;;;;;;;;;;4147769;34;20130;-67
2021/07/01 01:01:02;;;;;;;6.07;4.93;;;;;;;;;;4136259;34;20119;-68
2021/07/01 01:03:30;;;;;;;6.40;4.70;;;;;;;;;;4149118;34;20130;-68
2021/07/01 01:05:56;;;;;;;7.18;4.47;;;;;;;;;;4138031;34;20107;-68
2021/07/01 01:08:22;;;;;;;9.38;5.20;;;;;;;;;;4149583;34;20542;-70
2021/07/01 01:10:48;;;;;;;7.45;5.07;;;;;;;;;;4149682;34;20142;-70
2021/07/01 01:13:26;;;;;;;6.72;4.72;;;;;;;;;;4149701;34;20111;-69
2021/07/01 01:15:59;;;;;;;8.57;4.90;;;;;;;;;;4139291;34;20519;-70
2021/07/01 01:18:25;;;;;;;6.57;5.40;;;;;;;;;;4138209;34;20119;-70
2021/07/01 01:20:52;;;;;;;7.45;4.30;;;;;;;;;;4149736;34;20697;-69
2021/07/01 01:23:18;;;;;;;6.00;4.47;;;;;;;;;;4150830;34;20110;-69
2021/07/01 01:25:46;;;;;;;5.80;4.47;;;;;;;;;;4138638;34;20130;-69
2021/07/01 01:28:12;;;;;;;5.93;4.68;;;;;;;;;;4138411;34;20126;-69
2021/07/01 01:30:41;;;;;;;5.57;4.15;;;;;;;;;;4150934;34;20221;-69
2021/07/01 01:33:07;;;;;;;8.50;4.60;;;;;;;;;;4150980;34;20118;-70
2021/07/01 01:35:34;;;;;;;7.05;5.03;;;;;;;;;;4138498;34;20146;-70
2021/07/01 01:38:00;;;;;;;8.32;4.18;;;;;;;;;;4149460;34;20488;-70
2021/07/01 01:40:26;;;;;;;5.28;4.00;;;;;;;;;;4149674;34;20117;-70
2021/07/01 01:42:52;;;;;;;5.15;4.18;;;;;;;;;;4149323;34;20551;-69
2021/07/01 01:45:18;;;;;;;7.93;4.45;;;;;;;;;;4150751;34;20179;-69
2021/07/01 01:47:48;;;;;;;4.62;3.67;;;;;;;;;;4150844;34;20147;-70
2021/07/01 01:50:21;;;;;;;5.43;3.95;;;;;;;;;;4150643;34;20103;-69
2021/07/01 01:52:47;;;;;;;4.90;4.18;;;;;;;;;;4137998;34;20099;-69
2021/07/01 01:55:13;;;;;;;5.65;3.80;;;;;;;;;;4150482;34;20127;-70
2021/07/01 01:57:44;;;;;;;7.75;4.20;;;;;;;;;;4138082;34;20106;-70
2021/07/01 02:00:11;;;;;;;5.60;4.40;;;;;;;;;;4150723;34;20224;-70
2021/07/01 02:02:37;;;;;;;4.20;3.62;;;;;;;;;;4126993;34;20098;-70
2021/07/01 02:05:05;;;;;;;5.10;3.60;;;;;;;;;;4150690;34;20106;-70
2021/07/01 02:07:31;;;;;;;4.43;3.58;;;;;;;;;;4150449;34;20605;-70
2021/07/01 02:09:58;;;;;;;4.43;3.70;;;;;;;;;;4150502;34;20139;-70
2021/07/01 02:12:24;;;;;;;4.60;3.30;;;;;;;;;;4138175;34;20094;-70
2021/07/01 02:14:50;;;;;;;4.05;3.58;;;;;;;;;;4137898;34;20543;-68
2021/07/01 02:17:16;;;;;;;5.35;4.22;;;;;;;;;;4150375;34;20277;-70
2021/07/01 02:19:42;;;;;;;5.60;4.15;;;;;;;;;;4138003;34;20138;-70
2021/07/01 02:22:08;;;;;;;6.97;3.53;;;;;;;;;;4151015;34;20138;-70
2021/07/01 02:24:34;;;;;;;6.93;3.67;;;;;;;;;;4150668;34;20119;-70
2021/07/01 02:27:00;;;;;;;9.85;4.10;;;;;;;;;;4149043;34;20115;-70
2021/07/01 02:29:28;;;;;;;5.55;3.42;;;;;;;;;;4149132;34;20468;-69
2021/07/01 02:31:54;;;;;;;5.00;3.75;;;;;;;;;;4150476;34;20190;-73
2021/07/01 02:34:19;;;;;;;5.22;3.37;;;;;;;;;;4149266;34;20484;-70
2021/07/01 02:36:45;;;;;;;5.68;4.20;;;;;;;;;;4149065;34;20138;-70
2021/07/01 02:39:11;;;;;;;6.45;3.60;;;;;;;;;;4150714;34;20122;-76
2021/07/01 02:41:37;;;;;;;8.20;3.65;;;;;;;;;;4150361;34;20138;-69
2021/07/01 02:44:03;;;;;;;5.78;3.22;;;;;;;;;;4148784;34;20126;-69
2021/07/01 02:46:30;;;;;;;4.50;3.47;;;;;;;;;;4150301;34;20119;-70
2021/07/01 02:48:56;;;;;;;7.28;3.17;;;;;;;;;;4150526;34;20534;-70
2021/07/01 02:51:21;;;;;;;13.95;3.70;;;;;;;;;;4137797;34;20141;-69
2021/07/01 02:53:47;;;;;;;6.25;3.30;;;;;;;;;;4150220;34;20534;-70
2021/07/01 02:56:14;;;;;;;5.60;2.87;;;;;;;;;;4137775;34;20146;-70
2021/07/01 02:58:40;;;;;;;4.35;2.87;;;;;;;;;;4137813;34;20095;-70
2021/07/01 03:01:06;;;;;;;5.43;3.20;;;;;;;;;;4150218;34;20444;-70
2021/07/01 03:03:32;;;;;;;4.75;2.97;;;;;;;;;;4149970;34;20262;-70
2021/07/01 03:05:58;;;;;;;4.65;3.10;;;;;;;;;;4135368;34;20150;-70
2021/07/01 03:08:24;;;;;;;4.22;2.85;;;;;;;;;;4124287;34;20125;-71
2021/07/01 03:10:50;;;;;;;4.18;3.05;;;;;;;;;;4136286;34;20174;-71
2021/07/01 03:13:15;;;;;;;3.50;2.95;;;;;;;;;;4148576;34;20215;-71
2021/07/01 03:15:41;;;;;;;3.08;2.60;;;;;;;;;;4126414;34;20137;-71
2021/07/01 03:18:07;;;;;;;4.10;2.83;;;;;;;;;;4150278;34;20190;-69
2021/07/01 03:20:33;;;;;;;7.78;3.22;;;;;;;;;;4150110;34;20146;-69
2021/07/01 03:22:59;;;;;;;3.22;2.92;;;;;;;;;;4137453;34;20566;-70
2021/07/01 03:25:25;;;;;;;4.25;2.70;;;;;;;;;;4148508;34;20520;-71
2021/07/01 03:27:51;;;;;;;4.25;3.08;;;;;;;;;;4149328;34;20536;-70
2021/07/01 03:30:17;;;;;;;6.00;3.10;;;;;;;;;;4149862;34;20115;-69
2021/07/01 03:32:44;;;;;;;6.55;3.45;;;;;;;;;;4149971;34;20118;-69
2021/07/01 03:35:10;;;;;;;6.43;3.50;;;;;;;;;;4149765;34;20125;-70
2021/07/01 03:37:35;;;;;;;6.43;3.47;;;;;;;;;;4149857;34;20646;-69
2021/07/01 03:40:03;;;;;;;4.70;3.17;;;;;;;;;;4137243;34;20491;-69
2021/07/01 03:42:29;;;;;;;4.47;3.55;;;;;;;;;;4149877;34;20103;-69
2021/07/01 03:44:55;;;;;;;5.32;3.83;;;;;;;;;;4137230;34;20103;-70
2021/07/01 03:47:21;;;;;;;6.53;3.97;;;;;;;;;;4149891;34;20138;-70
2021/07/01 03:49:47;;;;;;;4.70;3.53;;;;;;;;;;4137300;34;20582;-70
2021/07/01 03:52:13;;;;;;;4.18;3.50;;;;;;;;;;4149920;34;20127;-71
2021/07/01 03:54:38;;;;;;;6.30;3.83;;;;;;;;;;4149480;34;20142;-70
2021/07/01 03:57:04;;;;;;;5.28;3.95;;;;;;;;;;4149878;34;20150;-70
2021/07/01 03:59:30;;;;;;;6.68;3.40;;;;;;;;;;4149561;34;20111;-70
2021/07/01 04:01:56;;;;;;;4.75;3.62;;;;;;;;;;4149890;34;20613;-70
2021/07/01 04:04:22;;;;;;;5.90;4.18;;;;;;;;;;4150048;34;20193;-70
2021/07/01 04:06:48;;;;;;;6.53;3.37;;;;;;;;;;4150024;34;20468;-70
2021/07/01 04:09:14;;;;;;;9.10;3.67;;;;;;;;;;4148350;34;20150;-69
2021/07/01 04:11:40;;;;;;;6.10;3.80;;;;;;;;;;4149534;34;20135;-70
2021/07/01 04:14:06;;;;;;;5.40;3.62;;;;;;;;;;4148005;34;20535;-70
2021/07/01 04:16:31;;;;;;;5.70;3.97;;;;;;;;;;4149553;34;20618;-70
2021/07/01 04:18:58;;;;;;;7.40;4.85;;;;;;;;;;4125846;34;20115;-69
2021/07/01 04:21:27;;;;;;;4.93;4.22;;;;;;;;;;4147993;34;20682;-70
2021/07/01 04:23:54;;;;;;;4.65;4.00;;;;;;;;;;4149432;34;20292;-70
2021/07/01 04:26:20;;;;;;;4.97;3.03;;;;;;;;;;4136768;34;20115;-70
2021/07/01 04:28:46;;;;;;;7.30;4.53;;;;;;;;;;4149350;34;20140;-70
2021/07/01 04:31:12;;;;;;;5.75;4.57;;;;;;;;;;4147973;34;20134;-71
2021/07/01 04:33:38;;;;;;;9.27;4.30;;;;;;;;;;4149080;34;20320;-70
2021/07/01 04:36:04;;;;;;;9.57;4.15;;;;;;;;;;4149521;34;20134;-70
2021/07/01 04:38:30;;;;;;;5.60;4.30;;;;;;;;;;4149227;34;20106;-70
2021/07/01 04:40:56;;;;;;;13.25;4.10;;;;;;;;;;4150567;34;20142;-69
2021/07/01 04:43:22;;;;;;;4.50;4.07;;;;;;;;;;4150883;34;20125;-70
2021/07/01 04:45:48;;;;;;;8.60;4.57;;;;;;;;;;4151421;34;20118;-70
2021/07/01 04:48:14;;;;;;;5.45;4.40;;;;;;;;;;4138680;34;20134;-70
2021/07/01 04:50:40;;;;;;;4.22;3.80;;;;;;;;;;4151423;34;20214;-69
2021/07/01 04:53:05;;;;;;;12.27;5.40;;;;;;;;;;4151182;34;20119;-70
2021/07/01 04:55:31;;;;;;;8.38;4.53;;;;;;;;;;4138859;34;20123;-70
2021/07/01 04:57:57;;;;;;;8.77;4.05;;;;;;;;;;4138629;34;20118;-70
2021/07/01 05:00:23;;;;;;;4.43;4.03;;;;;;;;;;4151098;34;20178;-70
2021/07/01 05:02:49;;;;;;;5.18;4.43;;;;;;;;;;4151315;34;20123;-70
2021/07/01 05:05:15;;;;;;;4.50;3.90;;;;;;;;;;4138525;34;20527;-70
2021/07/01 05:07:42;;;;;;;5.53;3.95;;;;;;;;;;4151179;34;20150;-70
2021/07/01 05:10:09;;;;;;;6.00;4.22;;;;;;;;;;4138570;34;20125;-69
2021/07/01 05:12:35;;;;;;;5.40;4.10;;;;;;;;;;4151037;34;20528;-70
2021/07/01 05:15:01;;;;;;;9.00;4.72;;;;;;;;;;4149844;34;20134;-70
2021/07/01 05:17:27;;;;;;;4.97;4.00;;;;;;;;;;4151028;34;20130;-70
2021/07/01 05:19:53;;;;;;;4.65;4.18;;;;;;;;;;4149470;34;20199;-69
2021/07/01 05:22:19;;;;;;;7.68;3.87;;;;;;;;;;4151057;34;20149;-70
2021/07/01 05:24:44;;;;;;;5.62;4.50;;;;;;;;;;4150675;34;20123;-70
2021/07/01 05:27:10;;;;;;;7.28;4.22;;;;;;;;;;4151172;34;20132;-70
2021/07/01 05:29:36;;;;;;;5.57;4.30;;;;;;;;;;4150903;34;20107;-70
2021/07/01 05:32:02;;;;;;;5.75;4.35;;;;;;;;;;4150970;34;20126;-70
2021/07/01 05:34:28;;;;;;;4.80;3.85;;;;;;;;;;4151061;34;20204;-70
2021/07/01 05:36:54;;;;;;;5.12;3.62;;;;;;;;;;4151142;34;20202;-70
2021/07/01 05:39:20;;;;;;;6.00;4.50;;;;;;;;;;4138551;34;20114;-70
2021/07/01 05:41:46;;;;;;;6.40;4.32;;;;;;;;;;4150712;34;20465;-70
2021/07/01 05:44:11;;;;;;;3.40;2.60;;;;;;;;;;4150451;34;20142;-70
2021/07/01 05:46:37;;;;;;;6.57;3.90;;;;;;;;;;4150785;34;20122;-70
2021/07/01 05:49:03;;;;;;;5.65;4.35;;;;;;;;;;4150980;34;20143;-70
2021/07/01 05:51:31;;;;;;;5.55;4.62;;;;;;;;;;4150416;34;20296;-70
2021/07/01 05:54:12;;;;;;;6.00;4.80;;;;;;;;;;4150499;34;20540;-70
2021/07/01 05:56:38;;;;;;;4.65;3.87;;;;;;;;;;4150639;34;20115;-70
2021/07/01 05:59:08;;;;;;;4.80;3.45;;;;;;;;;;4138105;34;20121;-70
2021/07/01 06:01:35;;;;;;;4.78;4.28;;;;;;;;;;4150616;34;20167;-70
2021/07/01 06:04:04;;;;;;;10.68;5.15;;;;;;;;;;4150454;34;20133;-70
2021/07/01 06:06:31;;;;;;;7.68;4.53;;;;;;;;;;4150472;34;20413;-70
2021/07/01 06:08:58;;;;;;;10.60;4.30;;;;;;;;;;4127094;34;20137;-70
2021/07/01 06:11:24;;;;;;;5.25;4.50;;;;;;;;;;4137966;34;20167;-70
2021/07/01 06:13:50;;;;;;;6.35;4.65;;;;;;;;;;4137922;34;20110;-70
2021/07/01 06:16:16;;;;;;;6.60;3.97;;;;;;;;;;4138115;34;20141;-70
2021/07/01 06:18:42;;;;;;;5.87;4.82;;;;;;;;;;4138065;34;20106;-70
2021/07/01 06:21:08;;;;;;;6.40;3.75;;;;;;;;;;4150631;34;20115;-70
2021/07/01 06:23:38;;;;;;;6.35;4.15;;;;;;;;;;4150308;34;20115;-70
2021/07/01 06:26:04;;;;;;;3.42;3.12;;;;;;;;;;4148993;34;20197;-70
2021/07/01 06:28:33;;;;;;;7.80;5.78;;;;;;;;;;4137719;34;20130;-70
2021/07/01 06:30:58;;;;;;;6.95;5.50;;;;;;;;;;4138086;34;20520;-70
2021/07/01 06:33:25;;;;;;;4.90;3.85;;;;;;;;;;4150200;34;20122;-70
2021/07/01 06:35:51;;;;;;;9.13;5.45;;;;;;;;;;4150216;34;20136;-70
2021/07/01 06:38:22;;;;;;;6.03;5.43;;;;;;;;;;4137719;34;20119;-70
2021/07/01 06:40:48;;;;;;;5.82;5.00;;;;;;;;;;4150313;34;20114;-70
2021/07/01 06:43:14;;;;;;;7.32;5.28;;;;;;;;;;4148832;34;20111;-70
2021/07/01 06:45:41;;;;;;;6.47;3.75;;;;;;;;;;4148961;34;20084;-70
2021/07/01 06:48:07;;;;;;;11.02;5.10;;;;;;;;;;4137573;34;20536;-70
2021/07/01 06:50:33;;;;;;;7.00;4.82;;;;;;;;;;4126514;34;20129;-70
2021/07/01 06:52:59;;;;;;;6.80;4.15;;;;;;;;;;4150138;34;20102;-70
2021/07/01 06:55:25;;;;;;;5.05;3.80;;;;;;;;;;4137675;34;20139;-70
2021/07/01 06:57:51;;;;;;;6.32;5.22;;;;;;;;;;4137511;34;20289;-70
2021/07/01 07:00:18;;;;;;;5.80;4.85;;;;;;;;;;4150032;34;20154;-70
2021/07/01 07:02:44;;;;;;;6.03;4.12;;;;;;;;;;4136949;34;20135;-70
2021/07/01 07:05:12;;;;;;;4.80;4.10;;;;;;;;;;4137408;34;20537;-70
2021/07/01 07:07:42;;;;;;;6.18;4.95;;;;;;;;;;4149877;34;20187;-70
2021/07/01 07:10:08;;;;;;;3.83;3.37;;;;;;;;;;4149833;34;20115;-70
2021/07/01 07:12:43;;;;;;;5.62;4.22;;;;;;;;;;4149890;34;20114;-70
2021/07/01 07:15:13;;;;;;;5.37;4.28;;;;;;;;;;4149849;34;20613;-70
2021/07/01 07:17:39;;;;;;;5.93;4.50;;;;;;;;;;4150099;34;20091;-70
2021/07/01 07:20:05;;;;;;;5.72;4.57;;;;;;;;;;4149965;34;20083;-70
2021/07/01 07:22:35;;;;;;;4.53;3.80;;;;;;;;;;4149880;34;20107;-70
2021/07/01 07:25:03;;;;;;;7.32;5.10;;;;;;;;;;4137496;34;20098;-70
2021/07/01 07:27:29;;;;;;;8.48;5.30;;;;;;;;;;4137386;34;20439;-70
2021/07/01 07:29:55;;;;;;;7.72;4.40;;;;;;;;;;4149801;34;20414;-70
2021/07/01 07:32:26;;;;;;;17.30;4.87;;;;;;;;;;4149886;34;20215;-70
2021/07/01 07:34:52;;;;;;;7.30;4.57;;;;;;;;;;4137136;34;20190;-70
2021/07/01 07:37:18;;;;;;;8.18;4.68;;;;;;;;;;4149738;34;20133;-70
2021/07/01 07:39:44;;;;;;;9.35;4.97;;;;;;;;;;4148068;34;20099;-70
2021/07/01 07:42:13;;;;;;;5.18;4.15;;;;;;;;;;4137280;34;20130;-71
2021/07/01 07:44:40;;;;;;;6.87;4.18;;;;;;;;;;4148247;34;20193;-70
2021/07/01 07:47:11;;;;;;;5.95;4.40;;;;;;;;;;4149640;34;20149;-70
2021/07/01 07:49:37;;;;;;;5.30;3.78;;;;;;;;;;4137681;34;20115;-70
2021/07/01 07:52:03;;;;;;;8.48;4.10;;;;;;;;;;4149852;34;20146;-70
2021/07/01 07:54:32;;;;;;;6.70;4.75;;;;;;;;;;4136892;34;20137;-70
2021/07/01 07:56:58;;;;;;;6.25;4.00;;;;;;;;;;4149522;34;20114;-70
2021/07/01 07:59:28;;;;;;;7.18;3.90;;;;;;;;;;4125799;34;20565;-70
2021/07/01 08:01:54;;;;;;;6.85;3.83;;;;;;;;;;4149688;34;20118;-70
2021/07/01 08:04:21;;;;;;;4.93;4.28;;;;;;;;;;4149712;34;20127;-71
2021/07/01 08:06:47;;;;;;;4.07;3.33;;;;;;;;;;4137200;34;20107;-71
2021/07/01 08:09:13;;;;;;;4.50;3.50;;;;;;;;;;4149517;34;20118;-70
2021/07/01 08:11:41;;;;;;;3.35;2.92;;;;;;;;;;4136985;34;20532;-71
2021/07/01 08:14:07;;;;;;;3.25;2.78;;;;;;;;;;4136640;34;20111;-71
2021/07/01 08:16:32;;;;;;;5.45;3.83;;;;;;;;;;4149612;34;20153;-71
2021/07/01 08:18:59;;;;;;;6.25;3.55;;;;;;;;;;4136821;34;20130;-71
2021/07/01 08:21:26;;;;;;;4.93;3.33;;;;;;;;;;4149524;34;20135;-71
2021/07/01 08:23:52;;;;;;;4.90;3.37;;;;;;;;;;4149355;34;20108;-68
2021/07/01 08:26:18;;;;;;;4.40;3.60;;;;;;;;;;4125747;34;20150;-68
2021/07/01 08:28:44;;;;;;;2.72;2.53;;;;;;;;;;4149377;34;20099;-68
2021/07/01 08:31:11;;;;;;;4.85;3.37;;;;;;;;;;4149364;34;20562;-68
2021/07/01 08:33:40;;;;;;;4.80;3.12;;;;;;;;;;4149350;34;20199;-68
2021/07/01 08:36:06;;;;;;;2.33;2.08;;;;;;;;;;4137055;34;20122;-68
2021/07/01 08:38:36;;;;;;;7.18;3.58;;;;;;;;;;4149152;34;20147;-68
2021/07/01 08:41:13;;;;;;;4.37;3.50;;;;;;;;;;4149230;34;20126;-69
2021/07/01 08:44:08;;;;;;;5.40;3.55;;;;;;;;;;4148917;34;20375;-69
2021/07/01 08:46:51;;;;;;;5.50;4.12;;;;;;;;;;4144333;34;20491;-71
2021/07/01 08:49:37;;;;;;;3.87;3.50;;;;;;;;;;4149009;34;20501;-71
2021/07/01 08:52:04;;;;;;;3.03;2.72;;;;;;;;;;4147847;34;20096;-71
2021/07/01 08:54:35;;;;;;;3.80;3.00;;;;;;;;;;4148908;34;20131;-71
2021/07/01 08:57:03;;;;;;;4.55;3.60;;;;;;;;;;4137036;34;20122;-71
2021/07/01 08:59:53;;;;;;;3.92;3.22;;;;;;;;;;4148954;34;20113;-71
2021/07/01 09:02:23;;;;;;;3.83;2.95;;;;;;;;;;4148963;34;20586;-71
2021/07/01 09:04:50;;;;;;;5.15;3.45;;;;;;;;;;4125274;34;20111;-71
2021/07/01 09:07:22;;;;;;;6.15;3.05;;;;;;;;;;4149050;34;20211;-71
2021/07/01 09:09:59;;;;;;;4.35;3.47;;;;;;;;;;4136675;34;20205;-71
2021/07/01 09:12:26;;;;;;;3.60;3.20;;;;;;;;;;4136727;34;20206;-71
2021/07/01 09:15:02;;;;;;;3.62;2.53;;;;;;;;;;4136252;34;20126;-71
2021/07/01 09:17:30;;;;;;;9.57;2.00;;;;;;;;;;4136885;34;20099;-71
2021/07/01 09:19:57;;;;;;;5.87;2.97;;;;;;;;;;4148990;34;20099;-71
2021/07/01 09:22:23;;;;;;;3.15;2.62;;;;;;;;;;4148733;34;20127;-71
2021/07/01 09:24:52;;;;;;;4.00;3.03;;;;;;;;;;4136486;34;20119;-68
2021/07/01 09:27:18;;;;;;;3.75;2.83;;;;;;;;;;4150497;34;20106;-69
2021/07/01 09:29:46;;;;;;;5.25;2.95;;;;;;;;;;4150881;34;20189;-69
2021/07/01 09:32:13;;;;;;;3.67;3.37;;;;;;;;;;4138467;34;20204;-69
2021/07/01 09:34:40;;;;;;;3.40;3.00;;;;;;;;;;4149333;34;20151;-69
2021/07/01 09:37:06;;;;;;;7.87;2.90;;;;;;;;;;4150727;34;20179;-69
2021/07/01 09:39:32;;;;;;;3.67;3.20;;;;;;;;;;4150566;34;20107;-69
2021/07/01 09:42:01;;;;;;;3.67;3.05;;;;;;;;;;4150910;34;20119;-69
2021/07/01 09:44:29;;;;;;;4.43;2.97;;;;;;;;;;4150795;34;20103;-69
2021/07/01 09:46:56;;;;;;;2.60;2.33;;;;;;;;;;4149542;34;20449;-69
2021/07/01 09:49:27;;;;;;;3.28;2.97;;;;;;;;;;4150612;34;20130;-69
2021/07/01 09:51:56;;;;;;;3.17;2.60;;;;;;;;;;4138534;34;20118;-67
2021/07/01 09:54:23;;;;;;;8.18;3.40;;;;;;;;;;4127728;34;20115;-67
2021/07/01 09:56:52;;;;;;;7.20;2.83;;;;;;;;;;4138158;34;20467;-67
2021/07/01 09:59:30;;;;;;;4.25;2.90;;;;;;;;;;4126798;34;20550;-68
2021/07/01 10:02:19;;;;;;;2.97;2.67;;;;;;;;;;4138036;34;20087;-68
2021/07/01 10:04:45;;;;;;;3.95;2.75;;;;;;;;;;4138179;34;20758;-67
2021/07/01 10:07:14;;;;;;;2.97;2.67;;;;;;;;;;4138193;34;20268;-67
2021/07/01 10:09:41;;;;;;;3.10;2.80;;;;;;;;;;4138003;34;20157;-67
2021/07/01 10:12:21;;;;;;;4.03;2.00;;;;;;;;;;4138258;34;20219;-67
2021/07/01 10:14:48;;;;;;;3.45;2.90;;;;;;;;;;4150538;34;20102;-67
2021/07/01 10:17:16;;;;;;;3.12;2.60;;;;;;;;;;4150454;34;20187;-67
2021/07/01 10:19:42;;;;;;;3.80;2.90;;;;;;;;;;4138045;34;20142;-67
2021/07/01 10:22:09;;;;;;;4.12;2.70;;;;;;;;;;4150406;34;20602;-67
2021/07/01 10:24:48;;;;;;;4.85;2.80;;;;;;;;;;4150633;34;20099;-67
2021/07/01 10:27:35;;;;;;;6.30;2.95;;;;;;;;;;4149066;34;20103;-68
2021/07/01 10:30:05;;;;;;;4.70;3.28;;;;;;;;;;4150406;34;20117;-67
2021/07/01 10:32:47;;;;;;;2.53;2.12;;;;;;;;;;4127278;34;20253;-67
2021/07/01 10:35:27;;;;;;;3.87;3.03;;;;;;;;;;4137745;34;20127;-67
2021/07/01 10:38:08;;;;;;;3.25;2.55;;;;;;;;;;4138896;34;20194;-67
2021/07/01 10:40:37;;;;;;;3.62;2.47;;;;;;;;;;4148968;34;20199;-67
2021/07/01 10:43:03;;;;;;;2.90;2.37;;;;;;;;;;4137818;34;20127;-67
2021/07/01 10:45:29;;;;;;;3.95;2.80;;;;;;;;;;4137814;34;20190;-67
2021/07/01 10:48:16;;;;;;;3.40;2.35;;;;;;;;;;4137769;34;20472;-67
2021/07/01 10:50:43;;;;;;;4.00;2.47;;;;;;;;;;4149205;34;20153;-67
2021/07/01 10:53:32;;;;;;;2.85;2.55;;;;;;;;;;4150204;34;20548;-67
2021/07/01 10:56:25;;;;;;;3.60;2.30;;;;;;;;;;4150193;34;20111;-67
2021/07/01 10:58:58;;;;;;;4.50;2.53;;;;;;;;;;4138108;34;20095;-67
2021/07/01 11:01:26;;;;;;;3.15;2.60;;;;;;;;;;4150242;34;20209;-67
2021/07/01 11:04:09;;;;;;;2.70;2.15;;;;;;;;;;4137561;34;20461;-67
2021/07/01 11:06:35;;;;;;;2.85;2.53;;;;;;;;;;4137873;34;20123;-67
2021/07/01 11:09:01;;;;;;;3.42;2.62;;;;;;;;;;4150162;34;20201;-67
2021/07/01 11:11:31;;;;;;;3.47;2.35;;;;;;;;;;4150121;34;20142;-68
2021/07/01 11:13:59;;;;;;;3.62;2.65;;;;;;;;;;4149955;34;20209;-67
2021/07/01 11:16:51;;;;;;;4.47;2.70;;;;;;;;;;4137851;34;20127;-68
2021/07/01 11:19:18;;;;;;;3.65;2.70;;;;;;;;;;4135066;34;20131;-68
2021/07/01 11:21:48;;;;;;;3.03;2.42;;;;;;;;;;4137793;34;20479;-68
2021/07/01 11:24:19;;;;;;;3.47;2.42;;;;;;;;;;4149946;34;20139;-68
2021/07/01 11:26:58;;;;;;;1.42;1.33;;;;;;;;;;4137739;34;20497;-68
2021/07/01 11:29:37;;;;;;;2.65;2.37;;;;;;;;;;4149858;34;20599;-68
2021/07/01 11:32:25;;;;;;;2.25;1.73;;;;;;;;;;4137629;34;20115;-68
2021/07/01 11:34:52;;;;;;;3.33;2.30;;;;;;;;;;4149755;34;20130;-68
2021/07/01 11:37:42;;;;;;;2.67;2.30;;;;;;;;;;4149947;34;20111;-68
2021/07/01 11:40:18;;;;;;;2.40;2.17;;;;;;;;;;4137533;34;20103;-68
2021/07/01 11:42:44;;;;;;;2.80;2.12;;;;;;;;;;4137522;34;20107;-68
2021/07/01 11:45:11;;;;;;;2.17;1.80;;;;;;;;;;4137037;34;20087;-68
2021/07/01 11:47:37;;;;;;;2.83;2.53;;;;;;;;;;4149775;34;20110;-68
2021/07/01 11:50:03;;;;;;;2.55;2.35;;;;;;;;;;4136800;34;20123;-68
2021/07/01 11:52:32;;;;;;;3.90;2.60;;;;;;;;;;4126183;34;20366;-68
2021/07/01 11:55:01;;;;;;;3.28;2.33;;;;;;;;;;4126780;34;20463;-68
2021/07/01 11:57:28;;;;;;;3.12;2.80;;;;;;;;;;4149962;34;20121;-68
2021/07/01 11:59:54;;;;;;;4.25;3.67;;;;;;;;;;4137447;34;20173;-68
2021/07/01 12:02:20;;;;;;;3.08;2.78;;;;;;;;;;4149702;34;20115;-68
2021/07/01 12:04:46;;;;;;;2.70;2.40;;;;;;;;;;4149540;34;20122;-68
2021/07/01 12:07:24;;;;;;;3.10;2.50;;;;;;;;;;4149555;34;20241;-68
2021/07/01 12:09:51;;;;;;;3.67;2.50;;;;;;;;;;4137252;34;20115;-68
2021/07/01 12:12:26;;;;;;;4.22;2.87;;;;;;;;;;4136943;34;20118;-68
2021/07/01 12:15:04;;;;;;;3.53;2.20;;;;;;;;;;4148359;34;20203;-68
2021/07/01 12:17:57;;;;;;;2.92;2.62;;;;;;;;;;4149462;34;20296;-68
2021/07/01 12:20:46;;;;;;;3.10;2.70;;;;;;;;;;4149447;34;20107;-68
2021/07/01 12:23:12;;;;;;;2.65;2.42;;;;;;;;;;4137049;34;20137;-68
2021/07/01 12:25:39;;;;;;;2.65;2.42;;;;;;;;;;4149463;34;20134;-68
2021/07/01 12:28:05;;;;;;;4.60;2.97;;;;;;;;;;4149602;34;20174;-68
2021/07/01 12:30:54;;;;;;;9.10;5.07;;;;;;;;;;4149469;34;20130;-68
2021/07/01 12:33:45;;;;;;;3.55;2.92;;;;;;;;;;4149338;34;20111;-68
2021/07/01 12:36:20;;;;;;;3.40;2.37;;;;;;;;;;4149514;34;20190;-67
2021/07/01 12:39:04;;;;;;;2.80;2.25;;;;;;;;;;4149165;34;20123;-68
2021/07/01 12:41:31;;;;;;;5.32;2.78;;;;;;;;;;4149259;34;20127;-68
2021/07/01 12:43:58;;;;;;;2.33;2.12;;;;;;;;;;4149021;34;20134;-68
2021/07/01 12:46:43;;;;;;;2.85;2.20;;;;;;;;;;4149169;34;20456;-68
2021/07/01 12:52:09;;;;;;;5.65;2.60;;;;;;;;;;4149215;34;20167;-67
2021/07/01 12:54:35;;;;;;;6.87;2.70;;;;;;;;;;4149226;34;20202;-68
2021/07/01 12:57:05;;;;;;;2.78;2.42;;;;;;;;;;4149160;34;20127;-68
2021/07/01 12:59:32;;;;;;;10.32;2.85;;;;;;;;;;4136426;34;20171;-68
2021/07/01 13:02:01;;;;;;;6.37;2.47;;;;;;;;;;4150588;34;20214;-68
2021/07/01 13:04:28;;;;;;;4.60;2.78;;;;;;;;;;4151256;34;20530;-68
2021/07/01 13:06:54;;;;;;;8.40;2.40;;;;;;;;;;4138870;34;20106;-68
2021/07/01 13:09:31;;;;;;;4.35;2.35;;;;;;;;;;4150909;34;20206;-68
2021/07/01 13:11:57;;;;;;;4.15;2.53;;;;;;;;;;4149710;34;20103;-68
2021/07/01 13:14:27;;;;;;;3.08;2.30;;;;;;;;;;4138276;34;20127;-68
2021/07/01 13:17:13;;;;;;;4.25;2.72;;;;;;;;;;4151052;34;20115;-68
2021/07/01 13:19:40;;;;;;;5.20;2.75;;;;;;;;;;4138413;34;20116;-68
2021/07/01 13:22:20;;;;;;;3.25;1.80;;;;;;;;;;4151195;34;20113;-68
2021/07/01 13:25:22;;;;;;;7.72;2.78;;;;;;;;;;4149615;34;20528;-68
2021/07/01 13:28:08;;;;;;;3.45;2.37;;;;;;;;;;4122287;34;20196;-68
2021/07/01 13:30:36;;;;;;;4.82;2.30;;;;;;;;;;4150961;34;20111;-68
2021/07/01 13:33:13;;;;;;;4.07;1.95;;;;;;;;;;4150939;34;20138;-68
2021/07/01 13:35:41;;;;;;;7.62;3.03;;;;;;;;;;4151169;34;20223;-68
2021/07/01 13:38:08;;;;;;;4.28;2.05;;;;;;;;;;4150646;34;20119;-68
2021/07/01 13:40:34;;;;;;;5.72;2.60;;;;;;;;;;4151006;34;20117;-68
2021/07/01 13:43:02;;;;;;;4.15;2.35;;;;;;;;;;4150800;34;20236;-68
2021/07/01 13:45:28;;;;;;;8.90;3.70;;;;;;;;;;4150419;34;20260;-68
2021/07/01 13:47:59;;;;;;;5.30;2.62;;;;;;;;;;4149355;34;20135;-67
2021/07/01 13:50:33;;;;;;;4.12;2.83;;;;;;;;;;4150699;34;20138;-68
2021/07/01 13:53:02;;;;;;;10.02;2.72;;;;;;;;;;4150771;34;20530;-68
2021/07/01 13:55:31;;;;;;;3.20;2.30;;;;;;;;;;4150685;34;20095;-68
2021/07/01 13:57:56;;;;;;;12.80;2.87;;;;;;;;;;4149286;34;20112;-68
2021/07/01 14:00:30;;;;;;;4.72;2.10;;;;;;;;;;4150617;34;20444;-68
2021/07/01 14:03:01;;;;;;;4.72;2.75;;;;;;;;;;4149094;34;20114;-68
2021/07/01 14:05:29;;;;;;;4.37;3.10;;;;;;;;;;4150850;34;20198;-69
2021/07/01 14:07:55;;;;;;;2.83;2.30;;;;;;;;;;4149477;34;20170;-68
2021/07/01 14:10:21;;;;;;;5.05;2.40;;;;;;;;;;4150475;34;20115;-68
2021/07/01 14:12:46;;;;;;;3.70;2.55;;;;;;;;;;4137927;34;20200;-68
2021/07/01 14:15:13;;;;;;;5.50;2.45;;;;;;;;;;4138044;34;20628;-69
2021/07/01 14:17:39;;;;;;;2.15;1.83;;;;;;;;;;4150551;34;20105;-69
2021/07/01 14:20:05;;;;;;;2.08;1.87;;;;;;;;;;4126797;34;20142;-68
2021/07/01 14:22:32;;;;;;;3.60;2.25;;;;;;;;;;4150465;34;20099;-69
2021/07/01 14:25:16;;;;;;;1.55;1.45;;;;;;;;;;4150421;34;20132;-70
2021/07/01 14:27:42;;;;;;;1.10;1.08;;;;;;;;;;4138108;34;20432;-70
2021/07/01 14:30:08;;;;;;;2.20;1.60;;;;;;;;;;4149081;34;20109;-70
2021/07/01 14:32:35;;;;;;;1.55;1.42;;;;;;;;;;4150487;34;20222;-69
2021/07/01 14:35:01;;;;;;;1.60;1.50;;;;;;;;;;4150339;34;20175;-70
2021/07/01 14:37:27;;;;;;;1.45;1.33;;;;;;;;;;4150313;34;20099;-70
2021/07/01 14:40:00;;;;;;;2.03;1.80;;;;;;;;;;4137854;34;20115;-70
2021/07/01 14:42:26;;;;;;;1.40;1.30;;;;;;;;;;4148959;34;20111;-70
2021/07/01 14:45:08;;;;;;;6.82;2.15;;;;;;;;;;4148697;34;20122;-68
2021/07/01 14:47:42;;;;;;;1.35;1.30;;;;;;;;;;4150414;34;20123;-68
2021/07/01 14:50:21;;;;;;;4.20;2.20;;;;;;;;;;4150540;34;20435;-68
2021/07/01 14:52:47;;;;;;;4.10;1.33;;;;;;;;;;4148899;34;20103;-68
2021/07/01 14:55:17;;;;;;;2.65;2.00;;;;;;;;;;4150053;34;20194;-68
2021/07/01 14:57:43;;;;;;;2.60;2.12;;;;;;;;;;4150160;34;20146;-68
2021/07/01 15:00:12;;;;;;;2.80;1.90;;;;;;;;;;4137752;34;20115;-69
2021/07/01 15:02:47;;;;;;;3.30;1.95;;;;;;;;;;4150257;34;20191;-68
2021/07/01 15:05:26;;;;;;;3.78;1.90;;;;;;;;;;4148701;34;20527;-70
2021/07/01 15:08:00;;;;;;;1.70;1.60;;;;;;;;;;4138687;34;20528;-71
2021/07/01 15:10:31;;;;;;;3.33;2.15;;;;;;;;;;4148589;34;20198;-69
2021/07/01 15:13:01;;;;;;;2.30;2.10;;;;;;;;;;4150297;34;20182;-70
2021/07/01 15:15:28;;;;;;;2.55;2.03;;;;;;;;;;4148577;34;20104;-70
2021/07/01 15:17:54;;;;;;;4.12;2.28;;;;;;;;;;4150037;34;20464;-70
2021/07/01 15:20:21;;;;;;;6.43;2.35;;;;;;;;;;4150144;34;20650;-70
2021/07/01 15:22:47;;;;;;;2.80;2.22;;;;;;;;;;4137679;34;20448;-70